sensor_id;sensor_type;location;lat;lon;timestamp;P1;durP1;ratioP1;P2;durP2;ratioP2
739;SDS011;354;42.694;23.336;2024-01-06T00:00:12;64.30;;;44.33;;
739;SDS011;354;42.694;23.336;2024-01-06T00:02:38;57.97;;;45.77;;
739;SDS011;354;42.694;23.336;2024-01-06T00:05:04;69.60;;;50.40;;
739;SDS011;354;42.694;23.336;2024-01-06T00:07:29;69.40;;;50.07;;
739;SDS011;354;42.694;23.336;2024-01-06T00:09:54;68.00;;;48.93;;
739;SDS011;354;42.694;23.336;2024-01-06T00:12:19;63.77;;;48.30;;
739;SDS011;354;42.694;23.336;2024-01-06T00:14:45;65.93;;;47.90;;
739;SDS011;354;42.694;23.336;2024-01-06T00:17:10;65.40;;;47.97;;
739;SDS011;354;42.694;23.336;2024-01-06T00:19:35;71.83;;;52.50;;
739;SDS011;354;42.694;23.336;2024-01-06T00:22:01;71.83;;;50.13;;
739;SDS011;354;42.694;23.336;2024-01-06T00:24:26;74.73;;;51.27;;
739;SDS011;354;42.694;23.336;2024-01-06T00:26:51;72.57;;;49.83;;
739;SDS011;354;42.694;23.336;2024-01-06T00:29:16;72.53;;;52.10;;
739;SDS011;354;42.694;23.336;2024-01-06T00:31:42;68.87;;;49.50;;
739;SDS011;354;42.694;23.336;2024-01-06T00:34:07;70.80;;;52.07;;
739;SDS011;354;42.694;23.336;2024-01-06T00:36:32;75.13;;;56.90;;
739;SDS011;354;42.694;23.336;2024-01-06T00:38:57;76.87;;;51.33;;
739;SDS011;354;42.694;23.336;2024-01-06T00:41:22;69.27;;;54.00;;
739;SDS011;354;42.694;23.336;2024-01-06T00:43:48;75.97;;;54.47;;
739;SDS011;354;42.694;23.336;2024-01-06T00:46:13;71.37;;;52.77;;
739;SDS011;354;42.694;23.336;2024-01-06T00:48:38;66.20;;;50.93;;
739;SDS011;354;42.694;23.336;2024-01-06T00:51:03;71.23;;;49.93;;
739;SDS011;354;42.694;23.336;2024-01-06T00:53:29;69.50;;;51.20;;
739;SDS011;354;42.694;23.336;2024-01-06T00:55:54;69.70;;;50.40;;
739;SDS011;354;42.694;23.336;2024-01-06T00:58:19;70.20;;;50.40;;
739;SDS011;354;42.694;23.336;2024-01-06T01:00:44;71.80;;;52.90;;
739;SDS011;354;42.694;23.336;2024-01-06T01:03:10;63.80;;;49.03;;
739;SDS011;354;42.694;23.336;2024-01-06T01:05:35;71.50;;;50.40;;
739;SDS011;354;42.694;23.336;2024-01-06T01:08:00;70.70;;;48.93;;
739;SDS011;354;42.694;23.336;2024-01-06T01:10:25;67.70;;;51.03;;
739;SDS011;354;42.694;23.336;2024-01-06T01:12:51;70.03;;;49.27;;
739;SDS011;354;42.694;23.336;2024-01-06T01:15:16;74.77;;;53.63;;
739;SDS011;354;42.694;23.336;2024-01-06T01:17:41;65.03;;;49.10;;
739;SDS011;354;42.694;23.336;2024-01-06T01:20:06;76.33;;;54.27;;
739;SDS011;354;42.694;23.336;2024-01-06T01:22:32;69.63;;;50.50;;
739;SDS011;354;42.694;23.336;2024-01-06T01:24:57;72.70;;;53.67;;
739;SDS011;354;42.694;23.336;2024-01-06T01:27:22;72.07;;;51.27;;
739;SDS011;354;42.694;23.336;2024-01-06T01:29:48;64.30;;;48.73;;
739;SDS011;354;42.694;23.336;2024-01-06T01:32:17;75.27;;;49.60;;
739;SDS011;354;42.694;23.336;2024-01-06T01:34:42;72.07;;;52.30;;
739;SDS011;354;42.694;23.336;2024-01-06T01:37:08;75.10;;;52.50;;
739;SDS011;354;42.694;23.336;2024-01-06T01:39:33;76.10;;;51.63;;
739;SDS011;354;42.694;23.336;2024-01-06T01:41:59;74.67;;;52.80;;
739;SDS011;354;42.694;23.336;2024-01-06T01:44:24;68.93;;;48.17;;
739;SDS011;354;42.694;23.336;2024-01-06T01:46:49;72.03;;;49.97;;
739;SDS011;354;42.694;23.336;2024-01-06T01:49:14;71.07;;;52.87;;
739;SDS011;354;42.694;23.336;2024-01-06T01:51:40;67.40;;;51.60;;
739;SDS011;354;42.694;23.336;2024-01-06T01:54:06;70.83;;;49.13;;
739;SDS011;354;42.694;23.336;2024-01-06T01:56:32;71.67;;;54.23;;
739;SDS011;354;42.694;23.336;2024-01-06T01:59:05;71.30;;;50.93;;
739;SDS011;354;42.694;23.336;2024-01-06T02:01:31;66.37;;;47.77;;
739;SDS011;354;42.694;23.336;2024-01-06T02:03:56;73.60;;;50.40;;
739;SDS011;354;42.694;23.336;2024-01-06T02:06:22;64.30;;;49.07;;
739;SDS011;354;42.694;23.336;2024-01-06T02:08:47;72.87;;;50.10;;
739;SDS011;354;42.694;23.336;2024-01-06T02:11:13;69.83;;;49.60;;
739;SDS011;354;42.694;23.336;2024-01-06T02:13:38;69.53;;;53.53;;
739;SDS011;354;42.694;23.336;2024-01-06T02:16:04;67.67;;;50.80;;
739;SDS011;354;42.694;23.336;2024-01-06T02:18:29;68.60;;;50.57;;
739;SDS011;354;42.694;23.336;2024-01-06T02:20:56;69.53;;;54.63;;
739;SDS011;354;42.694;23.336;2024-01-06T02:23:22;67.00;;;51.33;;
739;SDS011;354;42.694;23.336;2024-01-06T02:25:47;67.50;;;51.33;;
739;SDS011;354;42.694;23.336;2024-01-06T02:28:13;68.07;;;48.97;;
739;SDS011;354;42.694;23.336;2024-01-06T02:30:38;74.40;;;51.70;;
739;SDS011;354;42.694;23.336;2024-01-06T02:33:03;68.37;;;46.77;;
739;SDS011;354;42.694;23.336;2024-01-06T02:35:28;66.03;;;49.70;;
739;SDS011;354;42.694;23.336;2024-01-06T02:37:54;67.53;;;49.37;;
739;SDS011;354;42.694;23.336;2024-01-06T02:40:19;64.80;;;48.37;;
739;SDS011;354;42.694;23.336;2024-01-06T02:42:44;62.23;;;45.67;;
739;SDS011;354;42.694;23.336;2024-01-06T02:45:09;61.27;;;44.80;;
739;SDS011;354;42.694;23.336;2024-01-06T02:47:35;66.07;;;45.30;;
739;SDS011;354;42.694;23.336;2024-01-06T02:50:00;63.43;;;47.23;;
739;SDS011;354;42.694;23.336;2024-01-06T02:52:25;62.43;;;45.67;;
739;SDS011;354;42.694;23.336;2024-01-06T02:54:50;64.27;;;45.93;;
739;SDS011;354;42.694;23.336;2024-01-06T02:57:16;59.30;;;43.40;;
739;SDS011;354;42.694;23.336;2024-01-06T02:59:42;59.57;;;44.50;;
739;SDS011;354;42.694;23.336;2024-01-06T03:02:07;62.03;;;45.10;;
739;SDS011;354;42.694;23.336;2024-01-06T03:04:32;58.47;;;41.43;;
739;SDS011;354;42.694;23.336;2024-01-06T03:06:58;59.50;;;44.30;;
739;SDS011;354;42.694;23.336;2024-01-06T03:09:23;53.17;;;41.23;;
739;SDS011;354;42.694;23.336;2024-01-06T03:11:48;47.93;;;39.43;;
739;SDS011;354;42.694;23.336;2024-01-06T03:14:13;58.73;;;43.37;;
739;SDS011;354;42.694;23.336;2024-01-06T03:16:38;52.37;;;40.67;;
739;SDS011;354;42.694;23.336;2024-01-06T03:19:04;53.23;;;40.83;;
739;SDS011;354;42.694;23.336;2024-01-06T03:21:29;47.77;;;36.63;;
739;SDS011;354;42.694;23.336;2024-01-06T03:23:54;88.77;;;65.97;;
739;SDS011;354;42.694;23.336;2024-01-06T03:26:20;50.00;;;34.67;;
739;SDS011;354;42.694;23.336;2024-01-06T03:28:46;43.97;;;34.13;;
739;SDS011;354;42.694;23.336;2024-01-06T03:31:11;40.63;;;31.87;;
739;SDS011;354;42.694;23.336;2024-01-06T03:33:36;41.97;;;33.50;;
739;SDS011;354;42.694;23.336;2024-01-06T03:36:05;41.27;;;32.17;;
739;SDS011;354;42.694;23.336;2024-01-06T03:38:31;45.37;;;30.40;;
739;SDS011;354;42.694;23.336;2024-01-06T03:40:56;43.00;;;30.20;;
739;SDS011;354;42.694;23.336;2024-01-06T03:43:21;38.80;;;29.47;;
739;SDS011;354;42.694;23.336;2024-01-06T03:45:47;40.27;;;30.80;;
739;SDS011;354;42.694;23.336;2024-01-06T03:48:12;36.30;;;29.60;;
739;SDS011;354;42.694;23.336;2024-01-06T03:50:38;33.70;;;28.47;;
739;SDS011;354;42.694;23.336;2024-01-06T03:53:03;32.67;;;27.10;;
739;SDS011;354;42.694;23.336;2024-01-06T03:55:28;35.87;;;25.87;;
739;SDS011;354;42.694;23.336;2024-01-06T03:57:53;32.83;;;28.80;;
739;SDS011;354;42.694;23.336;2024-01-06T04:00:19;40.13;;;29.10;;
739;SDS011;354;42.694;23.336;2024-01-06T04:02:44;40.87;;;33.17;;
739;SDS011;354;42.694;23.336;2024-01-06T04:05:09;43.07;;;32.10;;
739;SDS011;354;42.694;23.336;2024-01-06T04:07:34;36.77;;;28.77;;
739;SDS011;354;42.694;23.336;2024-01-06T04:09:59;36.13;;;28.93;;
739;SDS011;354;42.694;23.336;2024-01-06T04:12:25;38.97;;;30.17;;
739;SDS011;354;42.694;23.336;2024-01-06T04:14:50;40.07;;;31.77;;
739;SDS011;354;42.694;23.336;2024-01-06T04:17:15;48.97;;;38.50;;
739;SDS011;354;42.694;23.336;2024-01-06T04:19:40;62.33;;;44.50;;
739;SDS011;354;42.694;23.336;2024-01-06T04:22:06;64.77;;;46.77;;
739;SDS011;354;42.694;23.336;2024-01-06T04:24:31;74.03;;;53.23;;
739;SDS011;354;42.694;23.336;2024-01-06T04:26:57;81.20;;;60.87;;
739;SDS011;354;42.694;23.336;2024-01-06T04:29:23;78.27;;;57.07;;
739;SDS011;354;42.694;23.336;2024-01-06T04:31:48;83.27;;;59.20;;
739;SDS011;354;42.694;23.336;2024-01-06T04:34:13;84.10;;;64.00;;
739;SDS011;354;42.694;23.336;2024-01-06T04:36:39;94.27;;;62.83;;
739;SDS011;354;42.694;23.336;2024-01-06T04:39:04;88.87;;;64.27;;
739;SDS011;354;42.694;23.336;2024-01-06T04:41:30;88.50;;;64.37;;
739;SDS011;354;42.694;23.336;2024-01-06T04:43:55;87.67;;;63.23;;
739;SDS011;354;42.694;23.336;2024-01-06T04:46:20;92.17;;;63.07;;
739;SDS011;354;42.694;23.336;2024-01-06T04:48:46;89.27;;;66.40;;
739;SDS011;354;42.694;23.336;2024-01-06T04:51:11;94.07;;;60.57;;
739;SDS011;354;42.694;23.336;2024-01-06T04:53:37;98.77;;;70.10;;
739;SDS011;354;42.694;23.336;2024-01-06T04:56:03;94.93;;;70.47;;
739;SDS011;354;42.694;23.336;2024-01-06T04:58:28;102.60;;;68.00;;
739;SDS011;354;42.694;23.336;2024-01-06T05:00:53;96.87;;;67.60;;
739;SDS011;354;42.694;23.336;2024-01-06T05:03:19;92.07;;;65.30;;
739;SDS011;354;42.694;23.336;2024-01-06T05:05:44;92.73;;;65.00;;
739;SDS011;354;42.694;23.336;2024-01-06T05:08:09;87.77;;;63.90;;
739;SDS011;354;42.694;23.336;2024-01-06T05:10:35;97.27;;;65.03;;
739;SDS011;354;42.694;23.336;2024-01-06T05:13:00;89.83;;;66.63;;
739;SDS011;354;42.694;23.336;2024-01-06T05:15:25;85.33;;;61.57;;
739;SDS011;354;42.694;23.336;2024-01-06T05:17:50;86.77;;;65.30;;
739;SDS011;354;42.694;23.336;2024-01-06T05:20:16;85.93;;;59.90;;
739;SDS011;354;42.694;23.336;2024-01-06T05:22:41;85.77;;;60.17;;
739;SDS011;354;42.694;23.336;2024-01-06T05:25:06;85.07;;;63.73;;
739;SDS011;354;42.694;23.336;2024-01-06T05:27:32;83.20;;;60.03;;
739;SDS011;354;42.694;23.336;2024-01-06T05:29:57;76.23;;;54.30;;
739;SDS011;354;42.694;23.336;2024-01-06T05:32:22;78.13;;;57.70;;
739;SDS011;354;42.694;23.336;2024-01-06T05:34:48;71.93;;;53.23;;
739;SDS011;354;42.694;23.336;2024-01-06T05:37:13;73.77;;;53.80;;
739;SDS011;354;42.694;23.336;2024-01-06T05:39:39;67.83;;;51.87;;
739;SDS011;354;42.694;23.336;2024-01-06T05:42:09;72.53;;;52.87;;
739;SDS011;354;42.694;23.336;2024-01-06T05:44:37;53.60;;;42.43;;
739;SDS011;354;42.694;23.336;2024-01-06T05:47:02;44.17;;;34.07;;
739;SDS011;354;42.694;23.336;2024-01-06T05:49:27;38.00;;;30.53;;
739;SDS011;354;42.694;23.336;2024-01-06T05:51:53;28.60;;;25.30;;
739;SDS011;354;42.694;23.336;2024-01-06T05:54:18;29.73;;;24.37;;
739;SDS011;354;42.694;23.336;2024-01-06T05:56:43;24.70;;;20.97;;
739;SDS011;354;42.694;23.336;2024-01-06T05:59:08;26.80;;;20.63;;
739;SDS011;354;42.694;23.336;2024-01-06T06:01:34;25.53;;;18.77;;
739;SDS011;354;42.694;23.336;2024-01-06T06:03:59;20.57;;;18.07;;
739;SDS011;354;42.694;23.336;2024-01-06T06:06:24;20.40;;;18.30;;
739;SDS011;354;42.694;23.336;2024-01-06T06:08:49;21.23;;;17.37;;
739;SDS011;354;42.694;23.336;2024-01-06T06:11:15;18.63;;;16.63;;
739;SDS011;354;42.694;23.336;2024-01-06T06:13:40;22.20;;;19.77;;
739;SDS011;354;42.694;23.336;2024-01-06T06:16:06;21.37;;;17.67;;
739;SDS011;354;42.694;23.336;2024-01-06T06:18:31;22.83;;;20.30;;
739;SDS011;354;42.694;23.336;2024-01-06T06:20:58;26.73;;;19.93;;
739;SDS011;354;42.694;23.336;2024-01-06T06:23:23;18.10;;;16.30;;
739;SDS011;354;42.694;23.336;2024-01-06T06:25:48;17.27;;;15.50;;
739;SDS011;354;42.694;23.336;2024-01-06T06:28:13;17.57;;;15.77;;
739;SDS011;354;42.694;23.336;2024-01-06T06:30:39;19.43;;;16.80;;
739;SDS011;354;42.694;23.336;2024-01-06T06:33:04;15.57;;;13.90;;
739;SDS011;354;42.694;23.336;2024-01-06T06:35:29;17.30;;;15.53;;
739;SDS011;354;42.694;23.336;2024-01-06T06:37:54;14.17;;;12.87;;
739;SDS011;354;42.694;23.336;2024-01-06T06:40:20;16.63;;;13.93;;
739;SDS011;354;42.694;23.336;2024-01-06T06:42:45;15.27;;;13.67;;
739;SDS011;354;42.694;23.336;2024-01-06T06:45:10;16.67;;;14.07;;
739;SDS011;354;42.694;23.336;2024-01-06T06:47:38;15.17;;;13.53;;
739;SDS011;354;42.694;23.336;2024-01-06T06:50:03;15.37;;;13.57;;
739;SDS011;354;42.694;23.336;2024-01-06T06:52:29;18.83;;;13.23;;
739;SDS011;354;42.694;23.336;2024-01-06T06:54:54;18.70;;;13.07;;
739;SDS011;354;42.694;23.336;2024-01-06T06:57:19;14.73;;;13.23;;
739;SDS011;354;42.694;23.336;2024-01-06T06:59:44;17.03;;;13.93;;
739;SDS011;354;42.694;23.336;2024-01-06T07:02:10;15.37;;;13.87;;
739;SDS011;354;42.694;23.336;2024-01-06T07:04:35;15.87;;;14.33;;
739;SDS011;354;42.694;23.336;2024-01-06T07:07:00;16.67;;;14.20;;
739;SDS011;354;42.694;23.336;2024-01-06T07:09:26;18.70;;;14.73;;
739;SDS011;354;42.694;23.336;2024-01-06T07:11:51;16.20;;;13.73;;
739;SDS011;354;42.694;23.336;2024-01-06T07:14:16;13.93;;;12.60;;
739;SDS011;354;42.694;23.336;2024-01-06T07:16:42;15.67;;;13.03;;
739;SDS011;354;42.694;23.336;2024-01-06T07:19:07;12.03;;;10.73;;
739;SDS011;354;42.694;23.336;2024-01-06T07:21:32;14.33;;;11.93;;
739;SDS011;354;42.694;23.336;2024-01-06T07:23:58;15.73;;;12.43;;
739;SDS011;354;42.694;23.336;2024-01-06T07:26:23;13.60;;;12.23;;
739;SDS011;354;42.694;23.336;2024-01-06T07:28:48;15.33;;;12.20;;
739;SDS011;354;42.694;23.336;2024-01-06T07:31:14;14.37;;;11.90;;
739;SDS011;354;42.694;23.336;2024-01-06T07:33:39;13.67;;;11.73;;
739;SDS011;354;42.694;23.336;2024-01-06T07:36:05;13.83;;;11.93;;
739;SDS011;354;42.694;23.336;2024-01-06T07:38:30;13.87;;;12.03;;
739;SDS011;354;42.694;23.336;2024-01-06T07:40:56;13.13;;;11.83;;
739;SDS011;354;42.694;23.336;2024-01-06T07:43:21;14.40;;;12.93;;
739;SDS011;354;42.694;23.336;2024-01-06T07:45:46;13.87;;;12.60;;
739;SDS011;354;42.694;23.336;2024-01-06T07:48:11;15.50;;;12.83;;
739;SDS011;354;42.694;23.336;2024-01-06T07:50:37;14.03;;;11.40;;
739;SDS011;354;42.694;23.336;2024-01-06T07:53:03;12.70;;;11.40;;
739;SDS011;354;42.694;23.336;2024-01-06T07:55:28;17.63;;;13.93;;
739;SDS011;354;42.694;23.336;2024-01-06T07:57:54;18.00;;;14.87;;
739;SDS011;354;42.694;23.336;2024-01-06T08:00:19;12.67;;;11.47;;
739;SDS011;354;42.694;23.336;2024-01-06T08:02:44;21.67;;;19.10;;
739;SDS011;354;42.694;23.336;2024-01-06T08:05:10;38.00;;;27.53;;
739;SDS011;354;42.694;23.336;2024-01-06T08:07:35;32.80;;;27.07;;
739;SDS011;354;42.694;23.336;2024-01-06T08:10:00;38.93;;;30.37;;
739;SDS011;354;42.694;23.336;2024-01-06T08:12:26;37.97;;;28.17;;
739;SDS011;354;42.694;23.336;2024-01-06T08:14:51;48.70;;;37.63;;
739;SDS011;354;42.694;23.336;2024-01-06T08:17:17;53.33;;;38.27;;
739;SDS011;354;42.694;23.336;2024-01-06T08:19:42;72.23;;;46.73;;
739;SDS011;354;42.694;23.336;2024-01-06T08:22:07;70.67;;;54.37;;
739;SDS011;354;42.694;23.336;2024-01-06T08:24:33;72.77;;;49.33;;
739;SDS011;354;42.694;23.336;2024-01-06T08:26:59;91.37;;;65.53;;
739;SDS011;354;42.694;23.336;2024-01-06T08:29:24;81.10;;;59.70;;
739;SDS011;354;42.694;23.336;2024-01-06T08:31:49;73.40;;;53.67;;
739;SDS011;354;42.694;23.336;2024-01-06T08:34:17;67.83;;;53.47;;
739;SDS011;354;42.694;23.336;2024-01-06T08:36:42;69.33;;;50.50;;
739;SDS011;354;42.694;23.336;2024-01-06T08:39:07;61.43;;;45.33;;
739;SDS011;354;42.694;23.336;2024-01-06T08:41:33;61.13;;;46.77;;
739;SDS011;354;42.694;23.336;2024-01-06T08:43:58;56.67;;;45.17;;
739;SDS011;354;42.694;23.336;2024-01-06T08:46:24;55.23;;;42.07;;
739;SDS011;354;42.694;23.336;2024-01-06T08:48:49;55.07;;;43.17;;
739;SDS011;354;42.694;23.336;2024-01-06T08:51:14;63.40;;;46.97;;
739;SDS011;354;42.694;23.336;2024-01-06T08:53:39;56.57;;;43.57;;
739;SDS011;354;42.694;23.336;2024-01-06T08:56:05;51.10;;;39.53;;
739;SDS011;354;42.694;23.336;2024-01-06T08:58:31;46.03;;;36.90;;
739;SDS011;354;42.694;23.336;2024-01-06T09:00:56;46.53;;;36.43;;
739;SDS011;354;42.694;23.336;2024-01-06T09:03:21;54.23;;;39.80;;
739;SDS011;354;42.694;23.336;2024-01-06T09:05:54;48.77;;;35.90;;
739;SDS011;354;42.694;23.336;2024-01-06T09:08:20;44.33;;;34.17;;
739;SDS011;354;42.694;23.336;2024-01-06T09:10:45;45.93;;;35.83;;
739;SDS011;354;42.694;23.336;2024-01-06T09:13:10;47.83;;;35.47;;
739;SDS011;354;42.694;23.336;2024-01-06T09:15:36;43.47;;;32.37;;
739;SDS011;354;42.694;23.336;2024-01-06T09:18:01;38.87;;;30.07;;
739;SDS011;354;42.694;23.336;2024-01-06T09:20:27;42.47;;;32.47;;
739;SDS011;354;42.694;23.336;2024-01-06T09:22:52;32.60;;;28.30;;
739;SDS011;354;42.694;23.336;2024-01-06T09:25:18;42.93;;;34.83;;
739;SDS011;354;42.694;23.336;2024-01-06T09:27:43;30.13;;;26.10;;
739;SDS011;354;42.694;23.336;2024-01-06T09:30:08;35.47;;;29.47;;
739;SDS011;354;42.694;23.336;2024-01-06T09:32:34;32.60;;;25.47;;
739;SDS011;354;42.694;23.336;2024-01-06T09:34:59;36.83;;;30.70;;
739;SDS011;354;42.694;23.336;2024-01-06T09:37:24;36.20;;;27.87;;
739;SDS011;354;42.694;23.336;2024-01-06T09:39:49;38.33;;;28.50;;
739;SDS011;354;42.694;23.336;2024-01-06T09:42:14;34.37;;;27.60;;
739;SDS011;354;42.694;23.336;2024-01-06T09:44:40;33.50;;;23.50;;
739;SDS011;354;42.694;23.336;2024-01-06T09:47:05;34.03;;;24.70;;
739;SDS011;354;42.694;23.336;2024-01-06T09:49:31;31.10;;;24.00;;
739;SDS011;354;42.694;23.336;2024-01-06T09:51:58;24.57;;;20.10;;
739;SDS011;354;42.694;23.336;2024-01-06T09:54:23;23.03;;;20.13;;
739;SDS011;354;42.694;23.336;2024-01-06T09:56:50;29.03;;;24.03;;
739;SDS011;354;42.694;23.336;2024-01-06T09:59:15;25.90;;;18.07;;
739;SDS011;354;42.694;23.336;2024-01-06T10:01:41;26.03;;;19.97;;
739;SDS011;354;42.694;23.336;2024-01-06T10:04:06;29.03;;;21.77;;
739;SDS011;354;42.694;23.336;2024-01-06T10:06:31;34.50;;;27.63;;
739;SDS011;354;42.694;23.336;2024-01-06T10:08:57;38.90;;;26.57;;
739;SDS011;354;42.694;23.336;2024-01-06T10:11:23;38.73;;;28.13;;
739;SDS011;354;42.694;23.336;2024-01-06T10:13:51;33.37;;;27.70;;
739;SDS011;354;42.694;23.336;2024-01-06T10:16:17;32.40;;;20.27;;
739;SDS011;354;42.694;23.336;2024-01-06T10:18:42;20.10;;;16.07;;
739;SDS011;354;42.694;23.336;2024-01-06T10:21:09;21.67;;;18.47;;
739;SDS011;354;42.694;23.336;2024-01-06T10:23:34;30.70;;;20.37;;
739;SDS011;354;42.694;23.336;2024-01-06T10:26:01;28.83;;;21.37;;
739;SDS011;354;42.694;23.336;2024-01-06T10:28:26;23.03;;;18.07;;
739;SDS011;354;42.694;23.336;2024-01-06T10:30:52;28.67;;;19.50;;
739;SDS011;354;42.694;23.336;2024-01-06T10:33:19;22.53;;;17.23;;
739;SDS011;354;42.694;23.336;2024-01-06T10:35:44;26.30;;;19.73;;
739;SDS011;354;42.694;23.336;2024-01-06T10:38:11;31.40;;;19.40;;
739;SDS011;354;42.694;23.336;2024-01-06T10:40:36;19.03;;;15.57;;
739;SDS011;354;42.694;23.336;2024-01-06T10:43:01;19.73;;;14.40;;
739;SDS011;354;42.694;23.336;2024-01-06T10:45:28;19.07;;;16.57;;
739;SDS011;354;42.694;23.336;2024-01-06T10:47:55;19.30;;;15.07;;
739;SDS011;354;42.694;23.336;2024-01-06T10:50:20;19.63;;;15.63;;
739;SDS011;354;42.694;23.336;2024-01-06T10:52:46;19.80;;;16.37;;
739;SDS011;354;42.694;23.336;2024-01-06T10:55:12;21.57;;;16.40;;
739;SDS011;354;42.694;23.336;2024-01-06T10:57:39;20.03;;;15.37;;
739;SDS011;354;42.694;23.336;2024-01-06T11:00:06;26.80;;;20.97;;
739;SDS011;354;42.694;23.336;2024-01-06T11:02:31;21.65;;;16.25;;
739;SDS011;354;42.694;23.336;2024-01-06T11:04:57;29.30;;;22.07;;
739;SDS011;354;42.694;23.336;2024-01-06T11:07:22;25.50;;;19.27;;
739;SDS011;354;42.694;23.336;2024-01-06T11:12:13;28.37;;;21.87;;
739;SDS011;354;42.694;23.336;2024-01-06T11:14:41;24.10;;;18.00;;
739;SDS011;354;42.694;23.336;2024-01-06T11:17:06;24.37;;;19.03;;
739;SDS011;354;42.694;23.336;2024-01-06T11:22:18;24.07;;;20.33;;
739;SDS011;354;42.694;23.336;2024-01-06T11:24:46;26.10;;;22.43;;
739;SDS011;354;42.694;23.336;2024-01-06T11:27:16;28.33;;;20.73;;
739;SDS011;354;42.694;23.336;2024-01-06T11:29:43;22.83;;;19.77;;
739;SDS011;354;42.694;23.336;2024-01-06T11:32:18;25.83;;;22.53;;
739;SDS011;354;42.694;23.336;2024-01-06T11:34:49;28.07;;;21.63;;
739;SDS011;354;42.694;23.336;2024-01-06T11:37:17;26.50;;;22.00;;
739;SDS011;354;42.694;23.336;2024-01-06T11:39:42;25.50;;;21.53;;
739;SDS011;354;42.694;23.336;2024-01-06T11:42:12;24.30;;;21.57;;
739;SDS011;354;42.694;23.336;2024-01-06T11:44:39;18.40;;;14.10;;
739;SDS011;354;42.694;23.336;2024-01-06T11:47:05;26.10;;;22.33;;
739;SDS011;354;42.694;23.336;2024-01-06T11:49:31;19.73;;;15.77;;
739;SDS011;354;42.694;23.336;2024-01-06T11:51:56;16.23;;;14.50;;
739;SDS011;354;42.694;23.336;2024-01-06T11:54:22;21.03;;;17.77;;
739;SDS011;354;42.694;23.336;2024-01-06T11:56:47;28.80;;;21.07;;
739;SDS011;354;42.694;23.336;2024-01-06T11:59:12;23.77;;;17.07;;
739;SDS011;354;42.694;23.336;2024-01-06T12:01:38;22.37;;;15.40;;
739;SDS011;354;42.694;23.336;2024-01-06T12:04:04;20.03;;;17.00;;
739;SDS011;354;42.694;23.336;2024-01-06T12:06:30;18.20;;;16.07;;
739;SDS011;354;42.694;23.336;2024-01-06T12:09:05;19.80;;;17.07;;
739;SDS011;354;42.694;23.336;2024-01-06T12:11:30;18.90;;;16.10;;
739;SDS011;354;42.694;23.336;2024-01-06T12:13:55;17.20;;;15.23;;
739;SDS011;354;42.694;23.336;2024-01-06T12:16:20;18.03;;;15.80;;
739;SDS011;354;42.694;23.336;2024-01-06T12:18:47;23.00;;;16.70;;
739;SDS011;354;42.694;23.336;2024-01-06T12:21:13;21.00;;;17.37;;
739;SDS011;354;42.694;23.336;2024-01-06T12:23:38;18.53;;;16.57;;
739;SDS011;354;42.694;23.336;2024-01-06T12:26:03;18.80;;;15.27;;
739;SDS011;354;42.694;23.336;2024-01-06T12:28:29;19.53;;;15.57;;
739;SDS011;354;42.694;23.336;2024-01-06T12:30:54;21.40;;;18.10;;
739;SDS011;354;42.694;23.336;2024-01-06T12:33:19;18.83;;;16.03;;
739;SDS011;354;42.694;23.336;2024-01-06T12:35:45;16.70;;;14.43;;
739;SDS011;354;42.694;23.336;2024-01-06T12:38:10;19.20;;;16.97;;
739;SDS011;354;42.694;23.336;2024-01-06T12:40:35;23.97;;;14.53;;
739;SDS011;354;42.694;23.336;2024-01-06T12:43:02;21.13;;;18.00;;
739;SDS011;354;42.694;23.336;2024-01-06T12:45:27;21.27;;;15.03;;
739;SDS011;354;42.694;23.336;2024-01-06T12:47:53;23.90;;;17.77;;
739;SDS011;354;42.694;23.336;2024-01-06T12:50:19;19.77;;;15.00;;
739;SDS011;354;42.694;23.336;2024-01-06T12:52:44;15.30;;;13.77;;
739;SDS011;354;42.694;23.336;2024-01-06T12:55:10;15.03;;;13.53;;
739;SDS011;354;42.694;23.336;2024-01-06T12:57:36;18.17;;;13.70;;
739;SDS011;354;42.694;23.336;2024-01-06T13:00:01;17.43;;;13.73;;
739;SDS011;354;42.694;23.336;2024-01-06T13:02:26;18.07;;;12.73;;
739;SDS011;354;42.694;23.336;2024-01-06T13:04:52;15.20;;;13.67;;
739;SDS011;354;42.694;23.336;2024-01-06T13:07:17;15.90;;;12.00;;
739;SDS011;354;42.694;23.336;2024-01-06T13:09:43;20.97;;;13.40;;
739;SDS011;354;42.694;23.336;2024-01-06T13:12:09;29.73;;;22.17;;
739;SDS011;354;42.694;23.336;2024-01-06T13:14:34;16.50;;;12.57;;
739;SDS011;354;42.694;23.336;2024-01-06T13:17:01;17.93;;;15.07;;
739;SDS011;354;42.694;23.336;2024-01-06T13:19:27;15.00;;;10.60;;
739;SDS011;354;42.694;23.336;2024-01-06T13:21:52;15.50;;;13.03;;
739;SDS011;354;42.694;23.336;2024-01-06T13:24:17;16.07;;;11.27;;
739;SDS011;354;42.694;23.336;2024-01-06T13:26:43;16.77;;;13.23;;
739;SDS011;354;42.694;23.336;2024-01-06T13:29:08;15.73;;;11.97;;
739;SDS011;354;42.694;23.336;2024-01-06T13:31:33;12.60;;;11.40;;
739;SDS011;354;42.694;23.336;2024-01-06T13:33:59;12.53;;;11.23;;
739;SDS011;354;42.694;23.336;2024-01-06T13:36:24;11.23;;;10.03;;
739;SDS011;354;42.694;23.336;2024-01-06T13:38:49;16.20;;;11.23;;
739;SDS011;354;42.694;23.336;2024-01-06T13:41:15;24.10;;;21.43;;
739;SDS011;354;42.694;23.336;2024-01-06T13:43:40;16.40;;;11.73;;
739;SDS011;354;42.694;23.336;2024-01-06T13:46:05;13.00;;;10.87;;
739;SDS011;354;42.694;23.336;2024-01-06T13:48:31;13.40;;;10.83;;
739;SDS011;354;42.694;23.336;2024-01-06T13:50:57;13.17;;;11.83;;
739;SDS011;354;42.694;23.336;2024-01-06T13:53:22;15.10;;;11.57;;
739;SDS011;354;42.694;23.336;2024-01-06T13:55:47;12.10;;;10.70;;
739;SDS011;354;42.694;23.336;2024-01-06T13:58:13;11.47;;;10.37;;
739;SDS011;354;42.694;23.336;2024-01-06T14:00:38;14.40;;;12.37;;
739;SDS011;354;42.694;23.336;2024-01-06T14:03:03;13.80;;;10.50;;
739;SDS011;354;42.694;23.336;2024-01-06T14:05:29;12.10;;;10.97;;
739;SDS011;354;42.694;23.336;2024-01-06T14:07:54;13.60;;;11.50;;
739;SDS011;354;42.694;23.336;2024-01-06T14:10:20;18.33;;;13.70;;
739;SDS011;354;42.694;23.336;2024-01-06T14:12:46;16.07;;;13.33;;
739;SDS011;354;42.694;23.336;2024-01-06T14:15:14;14.23;;;11.82;;
739;SDS011;354;42.694;23.336;2024-01-06T14:17:39;16.33;;;14.63;;
739;SDS011;354;42.694;23.336;2024-01-06T14:20:06;18.70;;;15.03;;
739;SDS011;354;42.694;23.336;2024-01-06T14:22:31;27.00;;;18.17;;
739;SDS011;354;42.694;23.336;2024-01-06T14:24:56;40.47;;;25.93;;
739;SDS011;354;42.694;23.336;2024-01-06T14:27:21;17.53;;;15.73;;
739;SDS011;354;42.694;23.336;2024-01-06T14:29:47;20.80;;;15.13;;
739;SDS011;354;42.694;23.336;2024-01-06T14:32:13;19.17;;;16.13;;
739;SDS011;354;42.694;23.336;2024-01-06T14:34:38;21.40;;;15.87;;
739;SDS011;354;42.694;23.336;2024-01-06T14:37:04;18.67;;;15.43;;
739;SDS011;354;42.694;23.336;2024-01-06T14:39:29;19.97;;;16.37;;
739;SDS011;354;42.694;23.336;2024-01-06T14:41:54;24.97;;;19.37;;
739;SDS011;354;42.694;23.336;2024-01-06T14:44:20;18.77;;;15.40;;
739;SDS011;354;42.694;23.336;2024-01-06T14:46:45;19.50;;;17.43;;
739;SDS011;354;42.694;23.336;2024-01-06T14:49:11;21.60;;;17.03;;
739;SDS011;354;42.694;23.336;2024-01-06T14:51:36;21.27;;;17.77;;
739;SDS011;354;42.694;23.336;2024-01-06T14:54:01;23.40;;;15.80;;